createdAt,value
2022-12-22T00:00:01.739Z,42.08
2022-12-22T00:01:23.123Z,38.72
2022-12-22T00:02:44.292Z,37.38
2022-12-22T00:04:05.270Z,36.20
2022-12-22T00:05:38.819Z,36.80
2022-12-22T00:06:59.940Z,40.90
2022-12-22T00:09:42.420Z,32.20
2022-12-22T00:11:03.559Z,36.35
2022-12-22T00:12:24.791Z,35.25
2022-12-22T00:13:46.021Z,38.72
2022-12-22T00:15:07.742Z,41.33
2022-12-22T00:16:29.370Z,38.83
2022-12-22T00:17:50.590Z,34.97
2022-12-22T00:19:11.707Z,40.33
2022-12-22T00:20:38.858Z,34.80
2022-12-22T00:21:59.955Z,37.95
2022-12-22T00:23:21.670Z,37.42
2022-12-22T00:24:42.678Z,38.42
2022-12-22T00:26:04.649Z,40.08
2022-12-22T00:27:33.923Z,34.42
2022-12-22T00:28:56.490Z,40.13
2022-12-22T00:30:18.456Z,42.40
2022-12-22T00:31:40.656Z,40.13
2022-12-22T00:33:02.370Z,33.70
2022-12-22T00:34:29.311Z,40.55
2022-12-22T00:35:53.857Z,39.70
2022-12-22T00:37:15.458Z,34.55
2022-12-22T00:38:40.066Z,38.22
2022-12-22T00:40:01.665Z,43.85
2022-12-22T00:41:23.503Z,41.50
2022-12-22T00:42:45.116Z,37.53
2022-12-22T00:44:07.068Z,40.22
2022-12-22T00:45:28.754Z,40.05
2022-12-22T00:46:51.353Z,40.35
2022-12-22T00:48:13.139Z,44.33
2022-12-22T00:49:35.763Z,38.42
2022-12-22T00:50:57.239Z,41.88
2022-12-22T00:52:18.841Z,37.70
2022-12-22T00:53:40.923Z,41.95
2022-12-22T00:55:02.538Z,40.47
2022-12-22T00:56:25.095Z,39.75
2022-12-22T00:57:46.690Z,39.17
2022-12-22T00:59:10.453Z,40.35
2022-12-22T01:00:37.696Z,39.80
2022-12-22T01:01:59.227Z,40.50
2022-12-22T01:03:20.964Z,37.85
2022-12-22T01:04:42.743Z,36.05
2022-12-22T01:06:04.230Z,37.55
2022-12-22T01:07:25.716Z,38.85
2022-12-22T01:08:47.805Z,43.00
2022-12-22T01:10:11.689Z,40.60
2022-12-22T01:11:33.154Z,36.33
2022-12-22T01:12:57.037Z,39.70
2022-12-22T01:14:18.215Z,34.72
2022-12-22T01:15:42.028Z,37.65
2022-12-22T01:17:03.412Z,39.85
2022-12-22T01:18:25.248Z,41.83
2022-12-22T01:19:46.664Z,41.38
2022-12-22T01:21:10.493Z,35.45
2022-12-22T01:22:36.297Z,34.83
2022-12-22T01:23:59.016Z,41.05
2022-12-22T01:25:20.267Z,36.25
2022-12-22T01:26:41.507Z,42.30
2022-12-22T01:28:02.862Z,39.08
2022-12-22T01:29:24.218Z,41.75
2022-12-22T01:30:45.479Z,40.40
2022-12-22T01:32:06.548Z,34.72
2022-12-22T01:33:32.360Z,39.10
2022-12-22T01:34:54.464Z,41.47
2022-12-22T01:36:15.462Z,36.15
2022-12-22T01:38:57.450Z,41.15
2022-12-22T01:40:18.588Z,35.30
2022-12-22T01:41:40.433Z,40.67
2022-12-22T01:43:01.559Z,49.13
2022-12-22T01:44:35.164Z,46.90
2022-12-22T01:45:56.318Z,41.88
2022-12-22T01:47:48.237Z,38.78
2022-12-22T01:49:09.595Z,42.95
2022-12-22T01:50:48.353Z,43.33
2022-12-22T01:52:09.481Z,43.00
2022-12-22T01:53:36.963Z,43.63
2022-12-22T01:54:58.563Z,47.63
2022-12-22T01:56:20.295Z,45.50
2022-12-22T01:57:42.043Z,39.60
2022-12-22T01:59:08.424Z,47.30
2022-12-22T02:00:30.623Z,46.50
2022-12-22T02:01:52.062Z,47.38
2022-12-22T02:03:13.120Z,49.03
2022-12-22T02:06:09.143Z,45.85
2022-12-22T02:07:42.250Z,49.22
2022-12-22T02:09:11.294Z,48.50
2022-12-22T02:10:54.137Z,50.00
2022-12-22T02:12:29.412Z,54.83
2022-12-22T02:14:02.776Z,49.10
2022-12-22T02:15:54.672Z,46.22
2022-12-22T02:17:18.519Z,49.65
2022-12-22T02:19:00.756Z,46.10
2022-12-22T02:21:08.069Z,50.22
2022-12-22T02:22:44.912Z,52.22
2022-12-22T02:24:37.952Z,43.88
2022-12-22T02:26:26.084Z,44.92
2022-12-22T02:27:48.399Z,47.28
2022-12-22T02:29:11.205Z,46.05
2022-12-22T02:30:32.473Z,48.58
2022-12-22T02:31:56.815Z,50.15
2022-12-22T02:33:18.059Z,49.83
2022-12-22T02:34:39.538Z,50.38
2022-12-22T02:36:03.893Z,51.78
2022-12-22T02:37:31.735Z,51.78
2022-12-22T02:39:16.141Z,50.88
2022-12-22T02:40:48.301Z,48.08
2022-12-22T02:42:29.599Z,51.03
2022-12-22T02:44:01.744Z,49.53
2022-12-22T02:46:18.840Z,47.88
2022-12-22T02:48:08.867Z,46.70
2022-12-22T02:49:50.598Z,48.85
2022-12-22T02:51:37.765Z,52.20
2022-12-22T02:53:02.247Z,49.38
2022-12-22T02:54:26.483Z,54.67
2022-12-22T02:55:49.281Z,50.05
2022-12-22T02:57:11.125Z,48.33
2022-12-22T02:58:34.058Z,51.15
2022-12-22T02:59:55.650Z,52.17
2022-12-22T03:01:18.037Z,50.13
2022-12-22T03:02:39.679Z,49.50
2022-12-22T03:04:01.539Z,48.75
2022-12-22T03:05:23.021Z,52.30
2022-12-22T03:06:44.981Z,48.85
2022-12-22T03:08:08.712Z,52.42
2022-12-22T03:09:30.228Z,44.58
2022-12-22T03:10:51.592Z,49.47
2022-12-22T03:12:12.839Z,48.35
2022-12-22T03:13:34.195Z,49.50
2022-12-22T03:14:55.251Z,48.53
2022-12-22T03:17:37.489Z,53.88
2022-12-22T03:20:19.457Z,48.25
2022-12-22T03:21:40.688Z,44.60
2022-12-22T03:23:01.973Z,45.55
2022-12-22T03:24:23.051Z,46.10
2022-12-22T03:25:44.227Z,44.83
2022-12-22T03:26:46.814Z,51.05
2022-12-22T03:27:49.376Z,53.15
2022-12-22T03:28:51.978Z,48.70
2022-12-22T03:29:54.539Z,44.58
2022-12-22T03:31:00.777Z,51.47
2022-12-22T03:32:03.542Z,45.80
2022-12-22T03:33:06.388Z,55.35
2022-12-22T03:34:08.945Z,54.53
2022-12-22T03:35:11.462Z,52.08
2022-12-22T03:36:13.983Z,52.17
2022-12-22T03:37:16.506Z,46.70
2022-12-22T03:38:19.270Z,56.33
2022-12-22T03:39:21.786Z,52.28
2022-12-22T03:40:24.430Z,52.42
2022-12-22T03:41:45.544Z,53.25
2022-12-22T03:44:41.472Z,54.08
2022-12-22T03:46:02.826Z,49.15
2022-12-22T03:47:05.518Z,49.63
2022-12-22T03:48:08.232Z,45.17
2022-12-22T03:49:10.869Z,54.03
2022-12-22T03:50:13.402Z,50.97
2022-12-22T03:51:15.914Z,58.83
2022-12-22T03:52:18.551Z,53.45
2022-12-22T03:53:21.196Z,50.75
2022-12-22T03:54:26.025Z,51.30
2022-12-22T03:55:28.756Z,48.13
2022-12-22T03:56:31.877Z,53.15
2022-12-22T03:57:34.397Z,55.60
2022-12-22T03:58:37.163Z,44.83
2022-12-22T03:59:39.676Z,54.22
2022-12-22T04:00:42.302Z,48.78
2022-12-22T04:01:47.792Z,45.83
2022-12-22T04:02:50.500Z,49.90
2022-12-22T04:03:53.245Z,49.35
2022-12-22T04:04:55.771Z,47.78
2022-12-22T04:05:58.287Z,45.13
2022-12-22T04:07:00.827Z,49.30
2022-12-22T04:08:03.337Z,47.20
2022-12-22T04:09:06.571Z,46.28
2022-12-22T04:10:28.318Z,44.47
2022-12-22T04:11:49.646Z,43.63
2022-12-22T04:12:55.649Z,45.60
2022-12-22T04:13:58.530Z,49.08
2022-12-22T04:15:00.935Z,44.20
2022-12-22T04:16:03.596Z,49.70
2022-12-22T04:17:07.177Z,42.00
2022-12-22T04:18:09.697Z,41.10
2022-12-22T04:19:12.357Z,47.30
2022-12-22T04:20:14.986Z,50.70
2022-12-22T04:21:17.503Z,46.20
2022-12-22T04:22:20.028Z,47.60
2022-12-22T04:23:22.665Z,47.47
2022-12-22T04:24:25.673Z,50.67
2022-12-22T04:25:29.770Z,48.72
2022-12-22T04:26:32.513Z,48.03
2022-12-22T04:27:35.404Z,46.78
2022-12-22T04:28:38.207Z,49.88
2022-12-22T04:29:40.929Z,44.30
2022-12-22T04:30:43.677Z,45.55
2022-12-22T04:31:46.496Z,48.58
2022-12-22T04:32:49.453Z,48.85
2022-12-22T04:33:52.683Z,52.08
2022-12-22T04:34:55.693Z,47.88
2022-12-22T04:35:58.685Z,49.85
2022-12-22T04:37:11.364Z,49.80
2022-12-22T04:38:19.809Z,51.05
2022-12-22T04:39:22.928Z,42.05
2022-12-22T04:40:26.055Z,47.88
2022-12-22T04:41:29.186Z,50.47
2022-12-22T04:42:32.415Z,49.22
2022-12-22T04:43:35.899Z,54.08
2022-12-22T04:44:39.041Z,47.90
2022-12-22T04:45:42.159Z,44.20
2022-12-22T04:46:46.705Z,49.30
2022-12-22T04:47:49.825Z,51.15
2022-12-22T04:48:59.349Z,50.53
2022-12-22T04:50:03.028Z,50.22
2022-12-22T04:51:06.516Z,53.55
2022-12-22T04:52:09.635Z,48.25
2022-12-22T04:53:12.753Z,50.15
2022-12-22T04:54:15.876Z,45.88
2022-12-22T04:55:19.237Z,50.50
2022-12-22T04:56:22.489Z,47.42
2022-12-22T04:57:25.600Z,46.10
2022-12-22T04:58:29.683Z,48.92
2022-12-22T04:59:32.926Z,50.20
2022-12-22T05:00:36.291Z,58.45
2022-12-22T05:01:39.701Z,51.38
2022-12-22T05:02:43.361Z,47.13
2022-12-22T05:03:47.346Z,48.67
2022-12-22T05:04:50.703Z,49.38
2022-12-22T05:05:54.062Z,49.78
2022-12-22T05:06:57.310Z,49.58
2022-12-22T05:08:00.539Z,47.60
2022-12-22T05:09:04.385Z,44.90
2022-12-22T05:10:07.990Z,47.05
2022-12-22T05:11:11.005Z,50.30
2022-12-22T05:12:32.351Z,49.78
2022-12-22T05:13:35.345Z,43.45
2022-12-22T05:14:37.992Z,48.85
2022-12-22T05:15:40.871Z,50.22
2022-12-22T05:16:43.613Z,44.75
2022-12-22T05:17:46.514Z,51.30
2022-12-22T05:18:49.104Z,47.67
2022-12-22T05:19:51.728Z,51.90
2022-12-22T05:20:54.322Z,47.00
2022-12-22T05:21:56.891Z,49.92
2022-12-22T05:22:59.768Z,44.83
2022-12-22T05:24:02.296Z,42.05
2022-12-22T05:25:05.251Z,41.83
2022-12-22T05:26:08.537Z,43.88
2022-12-22T05:27:12.451Z,45.65
2022-12-22T05:28:14.974Z,44.22
2022-12-22T05:29:17.739Z,44.55
2022-12-22T05:30:21.094Z,49.50
2022-12-22T05:31:25.658Z,48.78
2022-12-22T05:32:28.459Z,43.67
2022-12-22T05:33:31.179Z,47.33
2022-12-22T05:34:33.745Z,45.60
2022-12-22T05:35:36.262Z,47.33
2022-12-22T05:36:38.881Z,43.35
2022-12-22T05:37:41.553Z,45.95
2022-12-22T05:38:47.553Z,50.67
2022-12-22T05:39:50.183Z,42.28
2022-12-22T05:40:56.800Z,51.72
2022-12-22T05:42:02.427Z,49.55
2022-12-22T05:43:05.915Z,45.25
2022-12-22T05:44:08.547Z,42.72
2022-12-22T05:45:19.350Z,46.42
2022-12-22T05:46:23.761Z,48.80
2022-12-22T05:47:26.547Z,41.85
2022-12-22T05:48:35.335Z,47.25
2022-12-22T05:49:40.230Z,47.28
2022-12-22T05:50:42.760Z,46.90
2022-12-22T05:51:46.589Z,47.38
2022-12-22T05:52:49.716Z,49.42
2022-12-22T05:53:52.351Z,48.05
2022-12-22T05:54:54.880Z,50.47
2022-12-22T05:55:58.240Z,49.10
2022-12-22T05:57:00.878Z,43.50
2022-12-22T05:58:03.395Z,51.13
2022-12-22T05:59:05.917Z,48.47
2022-12-22T06:00:13.117Z,48.83
2022-12-22T06:01:15.636Z,50.03
2022-12-22T06:02:18.234Z,46.50
2022-12-22T06:03:20.994Z,50.83
2022-12-22T06:04:23.831Z,49.35
2022-12-22T06:05:26.448Z,47.83
2022-12-22T06:06:28.959Z,47.95
2022-12-22T06:07:31.494Z,51.33
2022-12-22T06:08:34.006Z,48.95
2022-12-22T06:09:36.534Z,47.47
2022-12-22T06:10:39.044Z,47.55
2022-12-22T06:11:41.576Z,45.50
2022-12-22T06:12:44.214Z,48.28
2022-12-22T06:13:46.847Z,45.70
2022-12-22T06:14:50.929Z,45.63
2022-12-22T06:15:53.876Z,47.55
2022-12-22T06:16:56.453Z,48.47
2022-12-22T06:17:58.974Z,56.95
2022-12-22T06:19:01.496Z,51.80
2022-12-22T06:20:05.220Z,53.22
2022-12-22T06:21:07.739Z,53.05
2022-12-22T06:22:10.382Z,48.67
2022-12-22T06:23:13.023Z,49.33
2022-12-22T06:24:15.552Z,49.20
2022-12-22T06:25:19.046Z,48.35
2022-12-22T06:26:21.789Z,51.15
2022-12-22T06:27:24.558Z,46.08
2022-12-22T06:28:27.907Z,50.65
2022-12-22T06:29:30.555Z,46.63
2022-12-22T06:30:34.090Z,49.38
2022-12-22T06:31:37.214Z,48.72
2022-12-22T06:32:40.541Z,57.60
2022-12-22T06:33:43.279Z,48.33
2022-12-22T06:34:46.159Z,47.55
2022-12-22T06:35:53.879Z,48.85
2022-12-22T06:37:01.284Z,49.55
2022-12-22T06:38:04.286Z,52.35
2022-12-22T06:39:07.411Z,51.17
2022-12-22T06:40:11.038Z,52.92
2022-12-22T06:41:14.151Z,53.72
2022-12-22T06:42:35.620Z,51.83
2022-12-22T06:43:38.742Z,47.95
2022-12-22T06:44:41.860Z,46.47
2022-12-22T06:45:45.578Z,51.92
2022-12-22T06:46:48.904Z,50.65
2022-12-22T06:47:52.185Z,53.03
2022-12-22T06:48:55.302Z,51.20
2022-12-22T06:49:58.436Z,50.47
2022-12-22T06:51:01.680Z,51.50
2022-12-22T06:52:08.872Z,55.05
2022-12-22T06:53:12.235Z,59.95
2022-12-22T06:54:18.412Z,58.58
2022-12-22T06:55:25.433Z,47.58
2022-12-22T06:56:28.556Z,50.78
2022-12-22T06:57:31.682Z,54.42
2022-12-22T06:58:34.968Z,54.25
2022-12-22T06:59:38.041Z,54.78
2022-12-22T07:00:41.414Z,52.50
2022-12-22T07:01:44.735Z,56.65
2022-12-22T07:02:48.128Z,51.88
2022-12-22T07:03:51.643Z,53.95
2022-12-22T07:04:54.863Z,52.67
2022-12-22T07:05:58.090Z,54.50
2022-12-22T07:07:01.333Z,53.38
2022-12-22T07:08:08.740Z,52.22
2022-12-22T07:09:12.620Z,54.53
2022-12-22T07:10:15.986Z,53.20
2022-12-22T07:11:19.111Z,59.72
2022-12-22T07:12:23.063Z,60.17
2022-12-22T07:13:28.234Z,56.25
2022-12-22T07:14:31.166Z,56.70
2022-12-22T07:15:34.175Z,55.78
2022-12-22T07:16:37.153Z,57.80
2022-12-22T07:17:42.032Z,51.95
2022-12-22T07:18:44.805Z,54.35
2022-12-22T07:19:47.915Z,53.38
2022-12-22T07:20:50.680Z,56.60
2022-12-22T07:21:53.493Z,57.20
2022-12-22T07:22:56.198Z,57.20
2022-12-22T07:23:58.841Z,70.95
2022-12-22T07:25:01.487Z,60.08
2022-12-22T07:26:05.087Z,55.80
2022-12-22T07:27:07.725Z,63.10
2022-12-22T07:28:15.095Z,55.80
2022-12-22T07:29:21.235Z,57.50
2022-12-22T07:30:23.737Z,58.13
2022-12-22T07:31:26.285Z,55.78
2022-12-22T07:32:28.780Z,64.38
2022-12-22T07:33:31.542Z,62.30
2022-12-22T07:34:34.178Z,56.92
2022-12-22T07:35:36.899Z,58.17
2022-12-22T07:36:39.819Z,60.47
2022-12-22T07:37:42.426Z,60.72
2022-12-22T07:38:47.825Z,59.25
2022-12-22T07:39:50.379Z,60.75
2022-12-22T07:41:02.925Z,61.45
2022-12-22T07:42:29.400Z,60.95
2022-12-22T07:43:32.726Z,58.83
2022-12-22T07:44:35.273Z,57.58
2022-12-22T07:45:38.503Z,54.08
2022-12-22T07:46:41.317Z,62.95
2022-12-22T07:47:44.517Z,59.53
2022-12-22T07:49:05.510Z,57.25
2022-12-22T07:51:35.392Z,59.83
2022-12-22T07:52:37.912Z,53.95
2022-12-22T07:53:40.549Z,62.83
2022-12-22T07:54:43.076Z,56.80
2022-12-22T07:55:45.600Z,56.92
2022-12-22T07:56:48.240Z,59.75
2022-12-22T07:57:51.475Z,51.45
2022-12-22T07:58:55.319Z,58.17
2022-12-22T07:59:57.836Z,57.50
2022-12-22T08:01:01.314Z,53.28
2022-12-22T08:02:04.117Z,57.88
2022-12-22T08:03:07.092Z,54.58
2022-12-22T08:04:13.018Z,53.15
2022-12-22T08:05:16.610Z,58.85
2022-12-22T08:06:19.461Z,58.22
2022-12-22T08:07:22.589Z,60.03
2022-12-22T08:08:25.202Z,51.58
2022-12-22T08:09:27.720Z,51.85
2022-12-22T08:10:30.249Z,52.50
2022-12-22T08:11:32.783Z,54.88
2022-12-22T08:12:35.327Z,52.42
2022-12-22T08:13:38.055Z,52.63
2022-12-22T08:14:40.580Z,53.45
2022-12-22T08:15:43.087Z,45.38
2022-12-22T08:16:45.680Z,50.60
2022-12-22T08:17:48.974Z,48.83
2022-12-22T08:18:51.635Z,51.28
2022-12-22T08:19:55.212Z,52.72
2022-12-22T08:20:57.741Z,52.58
2022-12-22T08:22:01.378Z,55.30
2022-12-22T08:23:03.859Z,50.05
2022-12-22T08:24:06.982Z,52.42
2022-12-22T08:25:09.622Z,54.35
2022-12-22T08:26:15.141Z,54.40
2022-12-22T08:27:26.182Z,48.92
2022-12-22T08:28:31.949Z,56.67
2022-12-22T08:29:43.248Z,52.10
2022-12-22T08:30:46.353Z,57.15
2022-12-22T08:31:49.107Z,46.00
2022-12-22T08:32:52.242Z,45.63
2022-12-22T08:33:59.322Z,50.47
2022-12-22T08:35:02.207Z,51.47
2022-12-22T08:36:08.260Z,48.22
2022-12-22T08:37:17.451Z,55.20
2022-12-22T08:38:20.454Z,49.50
2022-12-22T08:39:25.976Z,48.97
2022-12-22T08:40:32.813Z,47.03
2022-12-22T08:41:52.665Z,47.95
2022-12-22T08:43:03.175Z,53.53
2022-12-22T08:44:06.294Z,49.47
2022-12-22T08:45:11.615Z,46.50
2022-12-22T08:46:14.814Z,47.67
2022-12-22T08:47:18.484Z,51.00
2022-12-22T08:48:21.661Z,52.45
2022-12-22T08:49:25.383Z,53.15
2022-12-22T08:50:28.633Z,47.75
2022-12-22T08:51:31.869Z,45.63
2022-12-22T08:52:34.995Z,49.90
2022-12-22T08:54:03.822Z,46.03
2022-12-22T08:55:01.403Z,52.03
2022-12-22T08:56:04.511Z,53.88
2022-12-22T08:57:07.889Z,53.30
2022-12-22T08:58:11.116Z,49.95
2022-12-22T08:59:14.844Z,55.88
2022-12-22T09:00:18.075Z,52.85
2022-12-22T09:01:23.576Z,50.35
2022-12-22T09:02:27.088Z,53.85
2022-12-22T09:03:30.644Z,54.20
2022-12-22T09:04:34.649Z,47.65
2022-12-22T09:05:39.097Z,48.17
2022-12-22T09:06:42.475Z,51.72
2022-12-22T09:07:47.610Z,51.95
2022-12-22T09:08:56.256Z,49.10
2022-12-22T09:09:59.383Z,46.72
2022-12-22T09:11:06.347Z,51.92
2022-12-22T09:12:09.459Z,47.95
2022-12-22T09:13:12.701Z,44.97
2022-12-22T09:14:16.184Z,49.28
2022-12-22T09:15:19.190Z,53.08
2022-12-22T09:16:23.329Z,49.97
2022-12-22T09:17:26.271Z,41.08
2022-12-22T09:18:28.909Z,47.92
2022-12-22T09:19:31.679Z,48.05
2022-12-22T09:20:34.192Z,46.30
2022-12-22T09:21:37.435Z,51.95
2022-12-22T09:22:40.555Z,45.85
2022-12-22T09:23:44.313Z,52.42
2022-12-22T09:24:46.853Z,46.90
2022-12-22T09:25:49.683Z,52.67
2022-12-22T09:26:52.251Z,51.70
2022-12-22T09:27:54.888Z,52.42
2022-12-22T09:28:58.011Z,52.33
2022-12-22T09:30:00.729Z,55.63
2022-12-22T09:31:04.137Z,43.53
2022-12-22T09:32:07.516Z,54.22
2022-12-22T09:33:10.093Z,57.78
2022-12-22T09:34:17.706Z,59.83
2022-12-22T09:35:20.815Z,54.00
2022-12-22T09:36:26.540Z,52.85
2022-12-22T09:37:29.097Z,51.70
2022-12-22T09:38:31.827Z,55.92
2022-12-22T09:39:34.462Z,47.50
2022-12-22T09:40:37.381Z,50.38
2022-12-22T09:41:49.735Z,50.88
2022-12-22T09:42:52.227Z,56.33
2022-12-22T09:43:56.615Z,54.75
2022-12-22T09:44:59.346Z,51.63
2022-12-22T09:46:02.523Z,51.03
2022-12-22T09:47:17.087Z,50.20
2022-12-22T09:48:20.225Z,50.13
2022-12-22T09:49:23.482Z,48.40
2022-12-22T09:50:27.674Z,47.03
2022-12-22T09:51:31.386Z,50.45
2022-12-22T09:52:33.907Z,51.72
2022-12-22T09:53:36.427Z,49.17
2022-12-22T09:54:38.948Z,48.03
2022-12-22T09:55:45.066Z,41.92
2022-12-22T09:56:47.851Z,52.95
2022-12-22T09:57:51.428Z,42.03
2022-12-22T09:58:53.953Z,44.88
2022-12-22T10:00:17.967Z,49.20
2022-12-22T10:01:46.851Z,45.50
2022-12-22T10:03:04.409Z,39.40
2022-12-22T10:04:36.338Z,37.08
2022-12-22T10:06:04.056Z,41.45
2022-12-22T10:07:30.799Z,38.03
2022-12-22T10:08:36.578Z,37.75
2022-12-22T10:09:50.365Z,36.40
2022-12-22T10:10:55.909Z,35.00
2022-12-22T10:12:01.178Z,30.25
2022-12-22T10:13:05.479Z,32.70
2022-12-22T10:14:11.009Z,30.02
2022-12-22T10:15:20.002Z,29.15
2022-12-22T10:16:27.397Z,28.63
2022-12-22T10:17:32.871Z,27.42
2022-12-22T10:18:35.613Z,25.70
2022-12-22T10:19:38.128Z,25.98
2022-12-22T10:20:42.451Z,31.00
2022-12-22T10:21:50.012Z,30.90
2022-12-22T10:23:02.862Z,30.08
2022-12-22T10:24:29.168Z,29.08
2022-12-22T10:27:04.558Z,17.85
2022-12-22T10:28:12.578Z,20.15
2022-12-22T10:29:17.987Z,22.83
2022-12-22T10:30:29.750Z,23.30
2022-12-22T10:31:37.115Z,20.88
2022-12-22T10:32:40.074Z,19.02
2022-12-22T10:33:47.612Z,18.00
2022-12-22T10:35:01.317Z,24.13
2022-12-22T10:36:04.196Z,25.23
2022-12-22T10:37:06.960Z,22.30
2022-12-22T10:38:24.482Z,22.27
2022-12-22T10:39:30.853Z,24.85
2022-12-22T10:40:44.160Z,25.15
2022-12-22T10:41:49.567Z,30.38
2022-12-22T10:42:56.290Z,33.25
2022-12-22T10:44:03.011Z,27.55
2022-12-22T10:45:06.609Z,25.00
2022-12-22T10:46:09.817Z,26.65
2022-12-22T10:47:24.705Z,26.08
2022-12-22T10:48:36.159Z,25.92
2022-12-22T10:50:48.984Z,26.80
2022-12-22T10:51:57.621Z,33.85
2022-12-22T10:53:03.629Z,28.45
2022-12-22T10:54:07.347Z,24.40
2022-12-22T10:55:19.945Z,26.13
2022-12-22T10:56:31.467Z,28.52
2022-12-22T10:57:34.590Z,27.45
2022-12-22T10:59:20.562Z,29.40
2022-12-22T11:00:29.469Z,23.23
2022-12-22T11:01:35.668Z,21.45
2022-12-22T11:02:39.907Z,22.63
2022-12-22T11:03:43.308Z,19.73
2022-12-22T11:04:47.009Z,19.08
2022-12-22T11:05:50.202Z,21.10
2022-12-22T11:06:55.263Z,22.88
2022-12-22T11:08:15.893Z,18.85
2022-12-22T11:09:35.688Z,18.05
2022-12-22T11:10:48.292Z,19.65
2022-12-22T11:11:54.292Z,21.92
2022-12-22T11:13:18.654Z,20.15
2022-12-22T11:14:53.100Z,18.15
2022-12-22T11:16:09.301Z,18.85
2022-12-22T11:17:31.142Z,18.02
2022-12-22T11:18:41.467Z,19.45
2022-12-22T11:19:55.991Z,17.50
2022-12-22T11:21:24.303Z,17.58
2022-12-22T11:23:14.710Z,17.33
2022-12-22T11:24:23.473Z,15.57
2022-12-22T11:25:58.035Z,12.82
2022-12-22T11:27:08.357Z,16.42
2022-12-22T11:28:32.052Z,15.20
2022-12-22T11:30:10.593Z,14.07
2022-12-22T11:31:41.659Z,18.10
2022-12-22T11:34:21.636Z,14.10
2022-12-22T11:35:33.254Z,20.10
2022-12-22T11:37:28.331Z,14.90
2022-12-22T11:38:33.740Z,13.80
2022-12-22T11:39:39.408Z,12.63
2022-12-22T11:40:46.943Z,16.02
2022-12-22T11:41:49.335Z,11.23
2022-12-22T11:43:16.465Z,13.05
2022-12-22T11:44:40.219Z,10.68
2022-12-22T11:46:13.848Z,10.80
2022-12-22T11:48:06.716Z,13.23
2022-12-22T11:49:21.038Z,13.18
2022-12-22T11:51:00.896Z,12.93
2022-12-22T11:52:03.743Z,13.55
2022-12-22T11:53:37.823Z,12.35
2022-12-22T11:54:56.305Z,12.10
2022-12-22T11:56:21.264Z,8.68
2022-12-22T11:57:35.570Z,14.00
2022-12-22T11:59:04.110Z,11.88
2022-12-22T12:00:18.405Z,8.63
2022-12-22T12:01:26.290Z,16.73
2022-12-22T12:02:44.391Z,14.02
2022-12-22T12:04:28.383Z,9.27
2022-12-22T12:05:48.631Z,13.25
2022-12-22T12:07:21.935Z,9.48
2022-12-22T12:08:30.641Z,9.13
2022-12-22T12:10:02.560Z,10.32
2022-12-22T12:11:27.763Z,8.95
2022-12-22T12:12:45.995Z,10.27
2022-12-22T12:14:27.519Z,11.95
2022-12-22T12:15:47.012Z,12.65
2022-12-22T12:16:59.696Z,11.45
2022-12-22T12:18:37.842Z,12.25
2022-12-22T12:19:58.004Z,8.52
2022-12-22T12:21:24.768Z,13.15
2022-12-22T12:22:52.970Z,12.10
2022-12-22T12:24:21.536Z,12.10
2022-12-22T12:25:31.640Z,10.05
2022-12-22T12:27:13.392Z,13.07
2022-12-22T12:28:28.878Z,10.82
2022-12-22T12:29:41.100Z,13.82
2022-12-22T12:30:55.915Z,10.68
2022-12-22T12:32:04.936Z,11.95
2022-12-22T12:33:23.472Z,10.20
2022-12-22T12:34:27.799Z,9.50
2022-12-22T12:35:46.028Z,10.18
2022-12-22T12:37:25.846Z,14.77
2022-12-22T12:40:17.241Z,11.93
2022-12-22T12:41:37.171Z,9.82
2022-12-22T12:42:42.561Z,11.65
2022-12-22T12:43:47.843Z,14.93
2022-12-22T12:44:53.248Z,12.57
2022-12-22T12:45:56.366Z,13.77
2022-12-22T12:47:08.444Z,11.55
2022-12-22T12:48:23.981Z,12.45
2022-12-22T12:49:36.583Z,12.77
2022-12-22T12:50:39.714Z,14.48
2022-12-22T12:51:48.951Z,12.13
2022-12-22T12:52:52.060Z,9.43
2022-12-22T12:54:43.071Z,12.57
2022-12-22T12:55:55.440Z,11.55
2022-12-22T12:57:07.550Z,11.85
2022-12-22T12:58:12.703Z,13.00
2022-12-22T12:59:41.403Z,11.90
2022-12-22T13:00:49.937Z,10.48
2022-12-22T13:01:59.347Z,12.35
2022-12-22T13:03:08.884Z,13.63
2022-12-22T13:04:13.029Z,13.40
2022-12-22T13:05:32.038Z,13.60
2022-12-22T13:06:49.966Z,13.60
2022-12-22T13:08:07.461Z,11.63
2022-12-22T13:11:03.253Z,8.50
2022-12-22T13:12:49.211Z,9.52
2022-12-22T13:13:52.990Z,8.90
2022-12-22T13:15:01.896Z,12.40
2022-12-22T13:16:05.029Z,8.65
2022-12-22T13:17:52.935Z,12.73
2022-12-22T13:19:00.259Z,6.88
2022-12-22T13:20:03.741Z,11.85
2022-12-22T13:21:42.405Z,6.88
2022-12-22T13:22:29.547Z,8.82
2022-12-22T13:24:05.841Z,10.20
2022-12-22T13:25:04.236Z,9.32
2022-12-22T13:26:08.323Z,11.68
2022-12-22T13:27:12.037Z,8.73
2022-12-22T13:28:16.746Z,8.63
2022-12-22T13:29:32.124Z,7.82
2022-12-22T13:30:34.903Z,13.18
2022-12-22T13:31:42.476Z,12.77
2022-12-22T13:32:49.894Z,11.93
2022-12-22T13:34:05.491Z,8.38
2022-12-22T13:35:33.760Z,16.70
2022-12-22T13:36:38.017Z,13.25
2022-12-22T13:37:48.414Z,9.93
2022-12-22T13:39:05.816Z,14.20
2022-12-22T13:40:14.380Z,11.65
2022-12-22T13:41:26.475Z,10.35
2022-12-22T13:42:31.675Z,18.05
2022-12-22T13:43:35.494Z,10.43
2022-12-22T13:44:39.453Z,10.32
2022-12-22T13:45:49.214Z,8.30
2022-12-22T13:46:51.932Z,10.82
2022-12-22T13:47:54.940Z,11.57
2022-12-22T13:49:00.583Z,8.05
2022-12-22T13:50:09.677Z,9.68
2022-12-22T13:51:35.736Z,7.43
2022-12-22T13:52:40.545Z,11.63
2022-12-22T13:54:07.658Z,11.80
2022-12-22T13:55:16.546Z,10.00
2022-12-22T13:56:25.675Z,10.93
2022-12-22T13:57:28.668Z,13.32
2022-12-22T13:58:38.144Z,16.20
2022-12-22T13:59:43.544Z,10.57
2022-12-22T14:00:46.200Z,8.73
2022-12-22T14:01:51.181Z,11.27
2022-12-22T14:02:53.909Z,10.02
2022-12-22T14:04:04.380Z,13.52
2022-12-22T14:05:12.597Z,9.93
2022-12-22T14:06:36.127Z,6.70
2022-12-22T14:07:38.751Z,13.07
2022-12-22T14:08:41.269Z,10.73
2022-12-22T14:09:48.600Z,15.10
2022-12-22T14:10:53.154Z,9.35
2022-12-22T14:12:01.675Z,18.42
2022-12-22T14:13:14.513Z,13.25
2022-12-22T14:14:21.002Z,15.50
2022-12-22T14:15:23.792Z,9.85
2022-12-22T14:16:26.324Z,12.32
2022-12-22T14:17:36.848Z,12.48
2022-12-22T14:18:40.080Z,10.05
2022-12-22T14:19:42.723Z,11.45
2022-12-22T14:20:47.413Z,13.38
2022-12-22T14:22:02.330Z,8.73
2022-12-22T14:23:20.656Z,15.50
2022-12-22T14:24:28.675Z,10.02
2022-12-22T14:25:43.945Z,9.90
2022-12-22T14:26:47.179Z,13.88
2022-12-22T14:27:53.536Z,13.25
2022-12-22T14:28:57.261Z,9.65
2022-12-22T14:30:03.142Z,14.93
2022-12-22T14:31:09.141Z,10.23
2022-12-22T14:32:32.182Z,18.83
2022-12-22T14:33:35.663Z,12.70
2022-12-22T14:34:38.669Z,12.70
2022-12-22T14:35:41.549Z,11.00
2022-12-22T14:36:53.877Z,12.95
2022-12-22T14:38:05.793Z,9.18
2022-12-22T14:39:22.952Z,12.25
2022-12-22T14:40:42.526Z,15.88
2022-12-22T14:41:52.055Z,13.55
2022-12-22T14:42:55.396Z,15.00
2022-12-22T14:43:59.926Z,8.40
2022-12-22T14:45:03.180Z,11.40
2022-12-22T14:46:09.088Z,10.73
2022-12-22T14:47:12.439Z,10.82
2022-12-22T14:48:34.608Z,13.20
2022-12-22T14:49:44.212Z,15.82
2022-12-22T14:50:52.162Z,12.77
2022-12-22T14:52:06.556Z,15.30
2022-12-22T14:53:14.698Z,12.88
2022-12-22T14:54:25.264Z,16.55
2022-12-22T14:55:30.544Z,11.68
2022-12-22T14:56:33.793Z,10.43
2022-12-22T14:57:41.464Z,16.38
2022-12-22T14:58:46.507Z,13.52
2022-12-22T15:00:24.669Z,11.90
2022-12-22T15:01:29.261Z,15.93
2022-12-22T15:02:39.478Z,14.50
2022-12-22T15:03:44.073Z,17.95
2022-12-22T15:04:47.233Z,11.60
2022-12-22T15:05:51.444Z,12.18
2022-12-22T15:07:06.439Z,14.50
2022-12-22T15:08:39.571Z,12.40
2022-12-22T15:11:12.328Z,12.63
2022-12-22T15:12:18.957Z,18.10
2022-12-22T15:13:24.806Z,14.65
2022-12-22T15:14:36.681Z,11.27
2022-12-22T15:15:41.493Z,11.45
2022-12-22T15:16:45.295Z,17.38
2022-12-22T15:17:50.632Z,15.65
2022-12-22T15:18:53.863Z,14.30
2022-12-22T15:19:59.209Z,16.25
2022-12-22T15:21:03.120Z,18.05
2022-12-22T15:22:08.263Z,13.07
2022-12-22T15:23:14.637Z,16.15
2022-12-22T15:24:18.521Z,25.20
2022-12-22T15:25:26.153Z,11.32
2022-12-22T15:26:34.403Z,14.57
2022-12-22T15:27:40.193Z,13.45
2022-12-22T15:28:42.837Z,13.35
2022-12-22T15:29:45.521Z,10.65
2022-12-22T15:30:48.115Z,19.80
2022-12-22T15:31:50.778Z,12.52
2022-12-22T15:32:55.321Z,12.48
2022-12-22T15:34:01.145Z,20.08